sensor_id;sensor_type;location;lat;lon;timestamp;temperature;humidity
39371;DHT22;25099;51.946;4.838;2023-03-24T00:01:35;12.40;99.90
39371;DHT22;25099;51.946;4.838;2023-03-24T00:04:09;13.00;99.90
39371;DHT22;25099;51.946;4.838;2023-03-24T00:06:35;12.50;99.90
39371;DHT22;25099;51.946;4.838;2023-03-24T00:09:02;13.80;99.90
39371;DHT22;25099;51.946;4.838;2023-03-24T00:11:28;12.40;99.90
39371;DHT22;25099;51.946;4.838;2023-03-24T00:13:54;12.60;99.90
39371;DHT22;25099;51.946;4.838;2023-03-24T00:16:30;12.60;99.90
39371;DHT22;25099;51.946;4.838;2023-03-24T00:18:59;12.50;99.90
39371;DHT22;25099;51.946;4.838;2023-03-24T00:21:37;13.20;99.90
39371;DHT22;25099;51.946;4.838;2023-03-24T00:24:04;12.80;99.90
39371;DHT22;25099;51.946;4.838;2023-03-24T00:26:36;12.40;99.90
39371;DHT22;25099;51.946;4.838;2023-03-24T00:29:20;12.80;99.90
39371;DHT22;25099;51.946;4.838;2023-03-24T00:31:46;13.00;99.90
39371;DHT22;25099;51.946;4.838;2023-03-24T00:34:15;13.20;99.90
39371;DHT22;25099;51.946;4.838;2023-03-24T00:36:42;13.10;99.90
39371;DHT22;25099;51.946;4.838;2023-03-24T00:39:22;12.40;99.90
39371;DHT22;25099;51.946;4.838;2023-03-24T00:41:48;13.10;99.90
39371;DHT22;25099;51.946;4.838;2023-03-24T00:44:16;12.50;99.90
39371;DHT22;25099;51.946;4.838;2023-03-24T00:46:46;13.20;99.90
39371;DHT22;25099;51.946;4.838;2023-03-24T00:49:23;13.20;99.90
39371;DHT22;25099;51.946;4.838;2023-03-24T00:52:15;12.50;99.90
39371;DHT22;25099;51.946;4.838;2023-03-24T00:54:44;12.60;99.90
39371;DHT22;25099;51.946;4.838;2023-03-24T00:57:11;13.20;99.90
39371;DHT22;25099;51.946;4.838;2023-03-24T00:59:52;12.60;99.90
39371;DHT22;25099;51.946;4.838;2023-03-24T01:02:23;13.30;99.90
39371;DHT22;25099;51.946;4.838;2023-03-24T01:04:57;12.80;99.90
39371;DHT22;25099;51.946;4.838;2023-03-24T01:07:30;13.00;99.90
39371;DHT22;25099;51.946;4.838;2023-03-24T01:19:12;12.60;99.90
39371;DHT22;25099;51.946;4.838;2023-03-24T01:21:44;13.00;99.90
39371;DHT22;25099;51.946;4.838;2023-03-24T01:24:10;13.20;99.90
39371;DHT22;25099;51.946;4.838;2023-03-24T01:26:38;13.20;99.90
39371;DHT22;25099;51.946;4.838;2023-03-24T01:29:04;11.50;99.90
39371;DHT22;25099;51.946;4.838;2023-03-24T01:31:30;12.60;99.90
39371;DHT22;25099;51.946;4.838;2023-03-24T01:34:01;12.60;99.90
39371;DHT22;25099;51.946;4.838;2023-03-24T01:36:27;12.70;99.90
39371;DHT22;25099;51.946;4.838;2023-03-24T01:38:53;13.30;99.90
39371;DHT22;25099;51.946;4.838;2023-03-24T01:41:18;13.00;99.90
39371;DHT22;25099;51.946;4.838;2023-03-24T01:43:44;13.70;99.90
39371;DHT22;25099;51.946;4.838;2023-03-24T01:46:17;13.60;99.90
39371;DHT22;25099;51.946;4.838;2023-03-24T01:51:38;12.60;99.90
39371;DHT22;25099;51.946;4.838;2023-03-24T01:54:14;13.30;99.90
39371;DHT22;25099;51.946;4.838;2023-03-24T01:56:45;12.60;99.90
39371;DHT22;25099;51.946;4.838;2023-03-24T01:59:18;12.90;99.90
39371;DHT22;25099;51.946;4.838;2023-03-24T02:01:45;12.50;99.90
39371;DHT22;25099;51.946;4.838;2023-03-24T02:04:17;12.50;99.90
39371;DHT22;25099;51.946;4.838;2023-03-24T02:06:44;13.30;99.90
39371;DHT22;25099;51.946;4.838;2023-03-24T02:09:11;12.70;99.90
39371;DHT22;25099;51.946;4.838;2023-03-24T02:11:39;13.00;99.90
39371;DHT22;25099;51.946;4.838;2023-03-24T02:14:06;13.90;99.90
39371;DHT22;25099;51.946;4.838;2023-03-24T02:25:36;12.40;99.90
39371;DHT22;25099;51.946;4.838;2023-03-24T02:31:44;11.70;99.90
39371;DHT22;25099;51.946;4.838;2023-03-24T02:40:45;12.10;99.90
39371;DHT22;25099;51.946;4.838;2023-03-24T02:47:19;12.00;99.90
39371;DHT22;25099;51.946;4.838;2023-03-24T02:49:47;11.90;99.90
39371;DHT22;25099;51.946;4.838;2023-03-24T02:52:38;11.90;99.90
39371;DHT22;25099;51.946;4.838;2023-03-24T02:55:30;12.60;99.90
39371;DHT22;25099;51.946;4.838;2023-03-24T03:03:04;11.70;99.90
39371;DHT22;25099;51.946;4.838;2023-03-24T03:05:41;12.10;99.90
39371;DHT22;25099;51.946;4.838;2023-03-24T03:08:32;12.60;99.90
39371;DHT22;25099;51.946;4.838;2023-03-24T03:11:13;11.60;99.90
39371;DHT22;25099;51.946;4.838;2023-03-24T03:14:02;12.40;99.90
39371;DHT22;25099;51.946;4.838;2023-03-24T03:16:45;11.70;99.90
39371;DHT22;25099;51.946;4.838;2023-03-24T03:22:58;11.30;99.90
39371;DHT22;25099;51.946;4.838;2023-03-24T03:25:29;10.00;99.90
39371;DHT22;25099;51.946;4.838;2023-03-24T03:27:59;11.80;99.90
39371;DHT22;25099;51.946;4.838;2023-03-24T03:30:57;11.60;99.90
39371;DHT22;25099;51.946;4.838;2023-03-24T03:33:29;11.00;99.90
39371;DHT22;25099;51.946;4.838;2023-03-24T03:36:24;12.50;99.90
39371;DHT22;25099;51.946;4.838;2023-03-24T03:39:15;11.10;99.90
39371;DHT22;25099;51.946;4.838;2023-03-24T03:41:43;11.00;99.90
39371;DHT22;25099;51.946;4.838;2023-03-24T03:44:10;11.60;99.90
39371;DHT22;25099;51.946;4.838;2023-03-24T03:46:36;11.70;99.90
39371;DHT22;25099;51.946;4.838;2023-03-24T03:49:02;11.60;99.90
39371;DHT22;25099;51.946;4.838;2023-03-24T03:51:28;11.50;99.90
39371;DHT22;25099;51.946;4.838;2023-03-24T03:54:10;9.90;99.90
39371;DHT22;25099;51.946;4.838;2023-03-24T03:56:43;11.10;99.90
39371;DHT22;25099;51.946;4.838;2023-03-24T03:59:32;11.50;99.90
39371;DHT22;25099;51.946;4.838;2023-03-24T04:04:56;10.50;99.90
39371;DHT22;25099;51.946;4.838;2023-03-24T04:24:58;9.40;99.90
39371;DHT22;25099;51.946;4.838;2023-03-24T04:27:37;11.70;99.90
39371;DHT22;25099;51.946;4.838;2023-03-24T04:32:59;11.50;99.90
39371;DHT22;25099;51.946;4.838;2023-03-24T04:35:32;9.70;99.90
39371;DHT22;25099;51.946;4.838;2023-03-24T04:38:10;10.80;99.90
39371;DHT22;25099;51.946;4.838;2023-03-24T04:40:40;10.80;99.90
39371;DHT22;25099;51.946;4.838;2023-03-24T04:43:09;11.30;99.90
39371;DHT22;25099;51.946;4.838;2023-03-24T04:45:36;11.30;99.90
39371;DHT22;25099;51.946;4.838;2023-03-24T04:51:08;10.80;99.90
39371;DHT22;25099;51.946;4.838;2023-03-24T04:57:03;10.80;99.90
39371;DHT22;25099;51.946;4.838;2023-03-24T04:59:30;12.20;99.90
39371;DHT22;25099;51.946;4.838;2023-03-24T05:02:07;11.40;99.90
39371;DHT22;25099;51.946;4.838;2023-03-24T05:04:33;10.40;99.90
39371;DHT22;25099;51.946;4.838;2023-03-24T05:07:02;11.70;99.90
39371;DHT22;25099;51.946;4.838;2023-03-24T05:09:48;11.30;99.90
39371;DHT22;25099;51.946;4.838;2023-03-24T05:12:29;11.30;99.90
39371;DHT22;25099;51.946;4.838;2023-03-24T05:15:04;10.80;99.90
39371;DHT22;25099;51.946;4.838;2023-03-24T05:17:31;10.20;99.90
39371;DHT22;25099;51.946;4.838;2023-03-24T05:19:56;11.00;99.90
39371;DHT22;25099;51.946;4.838;2023-03-24T05:22:22;10.70;99.90
39371;DHT22;25099;51.946;4.838;2023-03-24T05:24:55;10.80;99.90
39371;DHT22;25099;51.946;4.838;2023-03-24T05:27:20;11.40;99.90
39371;DHT22;25099;51.946;4.838;2023-03-24T05:29:56;11.60;99.90
39371;DHT22;25099;51.946;4.838;2023-03-24T05:32:22;12.00;99.90
39371;DHT22;25099;51.946;4.838;2023-03-24T05:34:48;11.20;99.90
39371;DHT22;25099;51.946;4.838;2023-03-24T05:40:26;10.80;99.90
39371;DHT22;25099;51.946;4.838;2023-03-24T05:42:54;11.50;99.90
39371;DHT22;25099;51.946;4.838;2023-03-24T05:45:20;11.40;99.90
39371;DHT22;25099;51.946;4.838;2023-03-24T05:48:04;11.50;99.90
39371;DHT22;25099;51.946;4.838;2023-03-24T05:50:39;10.80;99.90
39371;DHT22;25099;51.946;4.838;2023-03-24T05:53:17;11.40;99.90
39371;DHT22;25099;51.946;4.838;2023-03-24T05:56:00;11.90;99.90
39371;DHT22;25099;51.946;4.838;2023-03-24T05:58:41;11.20;99.90
39371;DHT22;25099;51.946;4.838;2023-03-24T06:01:15;11.20;99.90
39371;DHT22;25099;51.946;4.838;2023-03-24T06:04:00;11.60;99.90
39371;DHT22;25099;51.946;4.838;2023-03-24T06:06:35;10.80;99.90
39371;DHT22;25099;51.946;4.838;2023-03-24T06:09:21;11.60;99.90
39371;DHT22;25099;51.946;4.838;2023-03-24T06:11:59;11.60;99.90
39371;DHT22;25099;51.946;4.838;2023-03-24T06:14:30;11.50;99.90
39371;DHT22;25099;51.946;4.838;2023-03-24T06:17:07;10.90;99.90
39371;DHT22;25099;51.946;4.838;2023-03-24T06:19:33;11.50;99.90
39371;DHT22;25099;51.946;4.838;2023-03-24T06:22:07;11.80;99.90
39371;DHT22;25099;51.946;4.838;2023-03-24T06:27:31;10.90;99.90
39371;DHT22;25099;51.946;4.838;2023-03-24T06:29:57;11.30;99.90
39371;DHT22;25099;51.946;4.838;2023-03-24T06:32:26;12.30;99.90
39371;DHT22;25099;51.946;4.838;2023-03-24T06:37:40;10.90;99.90
39371;DHT22;25099;51.946;4.838;2023-03-24T06:40:12;11.50;99.90
39371;DHT22;25099;51.946;4.838;2023-03-24T06:43:11;11.30;99.90
39371;DHT22;25099;51.946;4.838;2023-03-24T06:45:51;11.00;99.90
39371;DHT22;25099;51.946;4.838;2023-03-24T06:51:02;11.00;99.90
39371;DHT22;25099;51.946;4.838;2023-03-24T06:53:46;11.00;99.90
39371;DHT22;25099;51.946;4.838;2023-03-24T06:56:30;11.40;99.90
39371;DHT22;25099;51.946;4.838;2023-03-24T06:59:21;11.80;99.90
39371;DHT22;25099;51.946;4.838;2023-03-24T07:02:03;11.00;99.90
39371;DHT22;25099;51.946;4.838;2023-03-24T07:04:41;12.10;99.90
39371;DHT22;25099;51.946;4.838;2023-03-24T07:07:22;11.80;99.90
39371;DHT22;25099;51.946;4.838;2023-03-24T07:09:51;11.60;99.90
39371;DHT22;25099;51.946;4.838;2023-03-24T07:12:35;11.60;99.90
39371;DHT22;25099;51.946;4.838;2023-03-24T07:18:11;11.00;99.90
39371;DHT22;25099;51.946;4.838;2023-03-24T07:20:38;11.60;99.90
39371;DHT22;25099;51.946;4.838;2023-03-24T07:23:13;11.60;99.90
39371;DHT22;25099;51.946;4.838;2023-03-24T07:26:00;11.60;99.90
39371;DHT22;25099;51.946;4.838;2023-03-24T07:28:45;11.10;99.90
39371;DHT22;25099;51.946;4.838;2023-03-24T07:31:22;11.50;99.90
39371;DHT22;25099;51.946;4.838;2023-03-24T07:34:01;11.90;99.90
39371;DHT22;25099;51.946;4.838;2023-03-24T07:36:41;11.70;99.90
39371;DHT22;25099;51.946;4.838;2023-03-24T07:39:12;11.70;99.90
39371;DHT22;25099;51.946;4.838;2023-03-24T07:41:56;11.80;99.90
39371;DHT22;25099;51.946;4.838;2023-03-24T07:44:24;11.20;99.90
39371;DHT22;25099;51.946;4.838;2023-03-24T07:47:01;11.20;99.90
39371;DHT22;25099;51.946;4.838;2023-03-24T07:50:19;11.20;99.90
39371;DHT22;25099;51.946;4.838;2023-03-24T07:52:53;11.10;99.90
39371;DHT22;25099;51.946;4.838;2023-03-24T07:56:00;11.30;99.90
39371;DHT22;25099;51.946;4.838;2023-03-24T07:58:37;11.60;99.90
39371;DHT22;25099;51.946;4.838;2023-03-24T08:01:24;12.00;99.90
39371;DHT22;25099;51.946;4.838;2023-03-24T08:04:12;11.40;99.90
39371;DHT22;25099;51.946;4.838;2023-03-24T08:06:50;12.00;99.90
39371;DHT22;25099;51.946;4.838;2023-03-24T08:09:25;11.40;99.90
39371;DHT22;25099;51.946;4.838;2023-03-24T08:11:51;9.90;99.90
39371;DHT22;25099;51.946;4.838;2023-03-24T08:14:35;12.20;99.90
39371;DHT22;25099;51.946;4.838;2023-03-24T08:17:21;11.50;99.90
39371;DHT22;25099;51.946;4.838;2023-03-24T08:20:00;12.80;99.90
39371;DHT22;25099;51.946;4.838;2023-03-24T08:23:19;11.50;99.90
39371;DHT22;25099;51.946;4.838;2023-03-24T08:26:12;11.10;99.90
39371;DHT22;25099;51.946;4.838;2023-03-24T08:35:13;11.60;99.90
39371;DHT22;25099;51.946;4.838;2023-03-24T08:40:38;11.70;99.90
39371;DHT22;25099;51.946;4.838;2023-03-24T08:49:11;11.80;99.90
39371;DHT22;25099;51.946;4.838;2023-03-24T08:51:37;11.80;99.90
39371;DHT22;25099;51.946;4.838;2023-03-24T08:54:15;13.30;99.90
39371;DHT22;25099;51.946;4.838;2023-03-24T08:56:52;12.50;99.90
39371;DHT22;25099;51.946;4.838;2023-03-24T08:59:30;11.30;99.90
39371;DHT22;25099;51.946;4.838;2023-03-24T09:05:07;11.90;99.90
39371;DHT22;25099;51.946;4.838;2023-03-24T09:07:41;12.70;99.90
39371;DHT22;25099;51.946;4.838;2023-03-24T09:10:28;11.90;99.90
39371;DHT22;25099;51.946;4.838;2023-03-24T09:12:54;11.90;99.90
39371;DHT22;25099;51.946;4.838;2023-03-24T09:15:28;12.60;99.90
39371;DHT22;25099;51.946;4.838;2023-03-24T09:18:34;12.50;99.90
39371;DHT22;25099;51.946;4.838;2023-03-24T09:21:10;11.90;99.90
39371;DHT22;25099;51.946;4.838;2023-03-24T09:23:54;12.60;99.90
39371;DHT22;25099;51.946;4.838;2023-03-24T09:26:25;12.00;99.90
39371;DHT22;25099;51.946;4.838;2023-03-24T09:29:06;12.00;99.90
39371;DHT22;25099;51.946;4.838;2023-03-24T09:31:32;12.90;99.90
39371;DHT22;25099;51.946;4.838;2023-03-24T09:36:48;12.10;99.90
39371;DHT22;25099;51.946;4.838;2023-03-24T09:39:13;12.70;99.90
39371;DHT22;25099;51.946;4.838;2023-03-24T09:41:48;12.60;99.90
39371;DHT22;25099;51.946;4.838;2023-03-24T09:44:27;12.90;99.90
39371;DHT22;25099;51.946;4.838;2023-03-24T09:56:35;12.20;99.90
39371;DHT22;25099;51.946;4.838;2023-03-24T09:59:19;12.30;99.90
39371;DHT22;25099;51.946;4.838;2023-03-24T10:02:20;12.20;99.90
39371;DHT22;25099;51.946;4.838;2023-03-24T10:04:53;12.40;99.90
39371;DHT22;25099;51.946;4.838;2023-03-24T10:07:40;12.90;99.90
39371;DHT22;25099;51.946;4.838;2023-03-24T10:26:08;12.30;99.90
39371;DHT22;25099;51.946;4.838;2023-03-24T10:35:05;12.30;99.90
39371;DHT22;25099;51.946;4.838;2023-03-24T10:38:27;12.30;99.90
39371;DHT22;25099;51.946;4.838;2023-03-24T10:41:11;12.40;99.90
39371;DHT22;25099;51.946;4.838;2023-03-24T10:44:06;12.40;99.90
39371;DHT22;25099;51.946;4.838;2023-03-24T10:46:51;12.40;99.90
39371;DHT22;25099;51.946;4.838;2023-03-24T10:52:47;12.50;99.90
39371;DHT22;25099;51.946;4.838;2023-03-24T10:58:42;11.30;99.90
39371;DHT22;25099;51.946;4.838;2023-03-24T11:04:29;12.60;99.90
39371;DHT22;25099;51.946;4.838;2023-03-24T11:07:16;11.50;99.90
39371;DHT22;25099;51.946;4.838;2023-03-24T11:10:13;12.10;99.90
39371;DHT22;25099;51.946;4.838;2023-03-24T11:18:36;12.50;99.90
39371;DHT22;25099;51.946;4.838;2023-03-24T11:21:42;12.90;99.90
39371;DHT22;25099;51.946;4.838;2023-03-24T11:41:29;12.60;99.90
39371;DHT22;25099;51.946;4.838;2023-03-24T11:44:29;13.20;99.90
39371;DHT22;25099;51.946;4.838;2023-03-24T11:57:52;12.60;99.90
39371;DHT22;25099;51.946;4.838;2023-03-24T12:32:41;12.80;99.90
39371;DHT22;25099;51.946;4.838;2023-03-24T12:46:08;12.60;99.90
39371;DHT22;25099;51.946;4.838;2023-03-24T12:57:35;12.50;99.90
39371;DHT22;25099;51.946;4.838;2023-03-24T13:00:39;12.50;99.90
39371;DHT22;25099;51.946;4.838;2023-03-24T13:04:06;12.40;99.90
39371;DHT22;25099;51.946;4.838;2023-03-24T13:13:47;12.40;99.90
39371;DHT22;25099;51.946;4.838;2023-03-24T13:16:37;12.60;99.90
39371;DHT22;25099;51.946;4.838;2023-03-24T13:19:13;12.60;99.90
39371;DHT22;25099;51.946;4.838;2023-03-24T13:24:33;12.60;99.90
39371;DHT22;25099;51.946;4.838;2023-03-24T13:27:08;13.20;99.90
39371;DHT22;25099;51.946;4.838;2023-03-24T13:32:55;12.50;99.90
39371;DHT22;25099;51.946;4.838;2023-03-24T13:39:10;12.40;99.90
39371;DHT22;25099;51.946;4.838;2023-03-24T13:41:37;12.80;99.90
39371;DHT22;25099;51.946;4.838;2023-03-24T13:47:17;13.50;99.90
39371;DHT22;25099;51.946;4.838;2023-03-24T13:50:11;13.70;99.90
39371;DHT22;25099;51.946;4.838;2023-03-24T14:23:50;12.60;99.90
39371;DHT22;25099;51.946;4.838;2023-03-24T14:28:56;12.60;99.90
39371;DHT22;25099;51.946;4.838;2023-03-24T14:31:32;13.20;99.90
39371;DHT22;25099;51.946;4.838;2023-03-24T14:34:29;13.20;99.90
39371;DHT22;25099;51.946;4.838;2023-03-24T14:37:07;12.60;99.90
39371;DHT22;25099;51.946;4.838;2023-03-24T14:46:01;12.90;99.90
39371;DHT22;25099;51.946;4.838;2023-03-24T14:48:37;13.00;99.90
39371;DHT22;25099;51.946;4.838;2023-03-24T14:52:08;13.10;99.90
39371;DHT22;25099;51.946;4.838;2023-03-24T14:57:47;13.30;99.90
39371;DHT22;25099;51.946;4.838;2023-03-24T15:00:32;13.70;99.90
39371;DHT22;25099;51.946;4.838;2023-03-24T15:06:10;13.20;99.90
39371;DHT22;25099;51.946;4.838;2023-03-24T15:08:44;13.30;99.90
39371;DHT22;25099;51.946;4.838;2023-03-24T15:11:28;13.50;99.90
39371;DHT22;25099;51.946;4.838;2023-03-24T15:14:21;13.90;99.90
39371;DHT22;25099;51.946;4.838;2023-03-24T15:17:02;13.20;99.90
39371;DHT22;25099;51.946;4.838;2023-03-24T15:19:30;13.60;99.90
39371;DHT22;25099;51.946;4.838;2023-03-24T15:22:12;14.10;99.90
39371;DHT22;25099;51.946;4.838;2023-03-24T15:24:57;13.90;99.90
39371;DHT22;25099;51.946;4.838;2023-03-24T15:30:12;13.60;99.90
39371;DHT22;25099;51.946;4.838;2023-03-24T15:32:44;13.60;99.90
39371;DHT22;25099;51.946;4.838;2023-03-24T15:35:23;13.60;99.90
39371;DHT22;25099;51.946;4.838;2023-03-24T15:37:58;14.20;99.90
39371;DHT22;25099;51.946;4.838;2023-03-24T15:41:08;14.20;99.90
39371;DHT22;25099;51.946;4.838;2023-03-24T15:43:54;13.50;99.90
39371;DHT22;25099;51.946;4.838;2023-03-24T15:46:32;13.40;99.90
39371;DHT22;25099;51.946;4.838;2023-03-24T15:48:59;13.40;99.90
39371;DHT22;25099;51.946;4.838;2023-03-24T15:54:40;13.20;99.90
39371;DHT22;25099;51.946;4.838;2023-03-24T15:57:24;13.60;99.90
39371;DHT22;25099;51.946;4.838;2023-03-24T16:00:05;13.00;99.90
39371;DHT22;25099;51.946;4.838;2023-03-24T16:02:53;13.90;99.90
39371;DHT22;25099;51.946;4.838;2023-03-24T16:05:30;13.10;99.90
39371;DHT22;25099;51.946;4.838;2023-03-24T16:08:35;13.50;99.90
39371;DHT22;25099;51.946;4.838;2023-03-24T16:11:10;12.90;99.90
39371;DHT22;25099;51.946;4.838;2023-03-24T16:13:37;14.20;99.90
39371;DHT22;25099;51.946;4.838;2023-03-24T16:18:43;12.00;99.90
39371;DHT22;25099;51.946;4.838;2023-03-24T16:21:22;12.10;99.90
39371;DHT22;25099;51.946;4.838;2023-03-24T16:23:50;12.20;99.90
39371;DHT22;25099;51.946;4.838;2023-03-24T16:26:24;12.20;99.90
39371;DHT22;25099;51.946;4.838;2023-03-24T16:28:50;12.20;99.90
39371;DHT22;25099;51.946;4.838;2023-03-24T16:34:01;12.40;99.90
39371;DHT22;25099;51.946;4.838;2023-03-24T16:36:32;13.10;99.90
39371;DHT22;25099;51.946;4.838;2023-03-24T16:38:59;13.20;99.90
39371;DHT22;25099;51.946;4.838;2023-03-24T16:41:26;13.60;99.90
39371;DHT22;25099;51.946;4.838;2023-03-24T16:43:51;13.30;99.90
39371;DHT22;25099;51.946;4.838;2023-03-24T16:46:29;12.70;99.90
39371;DHT22;25099;51.946;4.838;2023-03-24T16:48:55;12.80;99.90
39371;DHT22;25099;51.946;4.838;2023-03-24T16:51:23;13.60;99.90
39371;DHT22;25099;51.946;4.838;2023-03-24T16:53:49;13.60;99.90
39371;DHT22;25099;51.946;4.838;2023-03-24T16:56:17;12.70;99.90
39371;DHT22;25099;51.946;4.838;2023-03-24T16:58:56;13.40;99.90
39371;DHT22;25099;51.946;4.838;2023-03-24T17:01:46;13.40;99.90
39371;DHT22;25099;51.946;4.838;2023-03-24T17:04:18;12.80;99.90
39371;DHT22;25099;51.946;4.838;2023-03-24T17:06:48;13.40;99.90
39371;DHT22;25099;51.946;4.838;2023-03-24T17:09:15;12.80;99.90
39371;DHT22;25099;51.946;4.838;2023-03-24T17:11:49;12.80;99.90
39371;DHT22;25099;51.946;4.838;2023-03-24T17:14:16;13.60;99.90
39371;DHT22;25099;51.946;4.838;2023-03-24T17:16:43;12.70;99.90
39371;DHT22;25099;51.946;4.838;2023-03-24T17:19:33;13.70;99.90
39371;DHT22;25099;51.946;4.838;2023-03-24T17:22:00;13.00;99.90
39371;DHT22;25099;51.946;4.838;2023-03-24T17:24:28;13.00;99.90
39371;DHT22;25099;51.946;4.838;2023-03-24T17:27:14;13.20;99.90
39371;DHT22;25099;51.946;4.838;2023-03-24T17:29:41;12.60;99.90
39371;DHT22;25099;51.946;4.838;2023-03-24T17:32:15;12.70;99.90
39371;DHT22;25099;51.946;4.838;2023-03-24T17:34:44;12.60;99.90
39371;DHT22;25099;51.946;4.838;2023-03-24T17:37:22;13.10;99.90
39371;DHT22;25099;51.946;4.838;2023-03-24T17:39:47;12.60;99.90
39371;DHT22;25099;51.946;4.838;2023-03-24T17:42:19;13.20;99.90
39371;DHT22;25099;51.946;4.838;2023-03-24T17:44:45;13.50;99.90
39371;DHT22;25099;51.946;4.838;2023-03-24T17:47:19;12.60;99.90
39371;DHT22;25099;51.946;4.838;2023-03-24T17:50:10;13.70;99.90
39371;DHT22;25099;51.946;4.838;2023-03-24T17:52:48;12.60;99.90
39371;DHT22;25099;51.946;4.838;2023-03-24T17:58:52;12.60;99.90
39371;DHT22;25099;51.946;4.838;2023-03-24T18:01:44;13.30;99.90
39371;DHT22;25099;51.946;4.838;2023-03-24T18:04:23;13.40;99.90
39371;DHT22;25099;51.946;4.838;2023-03-24T18:09:38;12.40;99.90
39371;DHT22;25099;51.946;4.838;2023-03-24T18:12:04;13.10;99.90
39371;DHT22;25099;51.946;4.838;2023-03-24T18:14:41;12.40;99.90
39371;DHT22;25099;51.946;4.838;2023-03-24T18:17:25;13.70;99.90
39371;DHT22;25099;51.946;4.838;2023-03-24T18:20:35;12.40;99.90
39371;DHT22;25099;51.946;4.838;2023-03-24T18:23:01;11.90;99.90
39371;DHT22;25099;51.946;4.838;2023-03-24T18:25:27;12.90;99.90
39371;DHT22;25099;51.946;4.838;2023-03-24T18:27:56;12.80;99.90
39371;DHT22;25099;51.946;4.838;2023-03-24T18:33:29;11.90;99.90
39371;DHT22;25099;51.946;4.838;2023-03-24T18:36:03;12.90;99.90
39371;DHT22;25099;51.946;4.838;2023-03-24T18:38:30;12.20;99.90
39371;DHT22;25099;51.946;4.838;2023-03-24T18:41:00;12.60;99.90
39371;DHT22;25099;51.946;4.838;2023-03-24T18:43:49;13.10;99.90
39371;DHT22;25099;51.946;4.838;2023-03-24T18:46:29;12.60;99.90
39371;DHT22;25099;51.946;4.838;2023-03-24T18:49:02;12.70;99.90
39371;DHT22;25099;51.946;4.838;2023-03-24T18:51:37;12.50;99.90
39371;DHT22;25099;51.946;4.838;2023-03-24T18:54:11;12.00;99.90
39371;DHT22;25099;51.946;4.838;2023-03-24T18:56:36;12.80;99.90
39371;DHT22;25099;51.946;4.838;2023-03-24T18:59:12;12.30;99.90
39371;DHT22;25099;51.946;4.838;2023-03-24T19:01:40;12.00;99.90
39371;DHT22;25099;51.946;4.838;2023-03-24T19:04:31;12.60;99.90
39371;DHT22;25099;51.946;4.838;2023-03-24T19:06:57;11.50;99.90
39371;DHT22;25099;51.946;4.838;2023-03-24T19:09:27;12.40;99.90
39371;DHT22;25099;51.946;4.838;2023-03-24T19:11:53;11.90;99.90
39371;DHT22;25099;51.946;4.838;2023-03-24T19:14:25;11.90;99.90
39371;DHT22;25099;51.946;4.838;2023-03-24T19:16:55;11.90;99.90
39371;DHT22;25099;51.946;4.838;2023-03-24T19:19:28;12.70;99.90
39371;DHT22;25099;51.946;4.838;2023-03-24T19:21:56;11.80;99.90
39371;DHT22;25099;51.946;4.838;2023-03-24T19:24:23;11.90;99.90
39371;DHT22;25099;51.946;4.838;2023-03-24T19:26:59;12.50;99.90
39371;DHT22;25099;51.946;4.838;2023-03-24T19:29:25;11.80;99.90
39371;DHT22;25099;51.946;4.838;2023-03-24T19:31:50;12.50;99.90
39371;DHT22;25099;51.946;4.838;2023-03-24T19:34:18;12.40;99.90
39371;DHT22;25099;51.946;4.838;2023-03-24T19:36:48;13.10;99.90
39371;DHT22;25099;51.946;4.838;2023-03-24T19:39:15;12.20;99.90
39371;DHT22;25099;51.946;4.838;2023-03-24T19:41:42;11.70;99.90
39371;DHT22;25099;51.946;4.838;2023-03-24T19:44:19;12.20;99.90
39371;DHT22;25099;51.946;4.838;2023-03-24T19:46:46;12.40;99.90
39371;DHT22;25099;51.946;4.838;2023-03-24T19:49:15;12.00;99.90
39371;DHT22;25099;51.946;4.838;2023-03-24T19:51:43;12.80;99.90
39371;DHT22;25099;51.946;4.838;2023-03-24T19:54:14;11.70;99.90
39371;DHT22;25099;51.946;4.838;2023-03-24T19:57:09;12.20;99.90
39371;DHT22;25099;51.946;4.838;2023-03-24T20:04:56;11.50;99.90
39371;DHT22;25099;51.946;4.838;2023-03-24T20:07:23;12.10;99.90
39371;DHT22;25099;51.946;4.838;2023-03-24T20:09:51;12.20;99.90
39371;DHT22;25099;51.946;4.838;2023-03-24T20:12:20;12.90;99.90
39371;DHT22;25099;51.946;4.838;2023-03-24T20:14:45;12.10;99.90
39371;DHT22;25099;51.946;4.838;2023-03-24T20:20:25;11.60;99.90
39371;DHT22;25099;51.946;4.838;2023-03-24T20:23:03;12.40;99.90
39371;DHT22;25099;51.946;4.838;2023-03-24T20:31:26;11.60;99.90
39371;DHT22;25099;51.946;4.838;2023-03-24T20:33:52;11.50;99.90
39371;DHT22;25099;51.946;4.838;2023-03-24T20:36:59;12.90;99.90
39371;DHT22;25099;51.946;4.838;2023-03-24T20:39:35;12.30;99.90
39371;DHT22;25099;51.946;4.838;2023-03-24T20:42:10;12.90;99.90
39371;DHT22;25099;51.946;4.838;2023-03-24T20:44:42;12.50;99.90
39371;DHT22;25099;51.946;4.838;2023-03-24T20:47:11;10.20;99.90
39371;DHT22;25099;51.946;4.838;2023-03-24T20:52:22;11.40;99.90
39371;DHT22;25099;51.946;4.838;2023-03-24T21:01:18;11.20;99.90
39371;DHT22;25099;51.946;4.838;2023-03-24T21:09:54;12.00;99.90
39371;DHT22;25099;51.946;4.838;2023-03-24T21:12:57;11.40;99.90
39371;DHT22;25099;51.946;4.838;2023-03-24T21:15:23;11.40;99.90
39371;DHT22;25099;51.946;4.838;2023-03-24T21:17:52;11.40;99.90
39371;DHT22;25099;51.946;4.838;2023-03-24T22:12:24;11.20;99.90
39371;DHT22;25099;51.946;4.838;2023-03-24T22:14:55;11.20;99.90
39371;DHT22;25099;51.946;4.838;2023-03-24T22:17:20;12.30;99.90
39371;DHT22;25099;51.946;4.838;2023-03-24T22:19:46;11.90;99.90
39371;DHT22;25099;51.946;4.838;2023-03-24T22:22:12;11.70;99.90
39371;DHT22;25099;51.946;4.838;2023-03-24T22:24:42;11.70;99.90
39371;DHT22;25099;51.946;4.838;2023-03-24T22:27:08;11.30;99.90
39371;DHT22;25099;51.946;4.838;2023-03-24T22:29:42;11.70;99.90
39371;DHT22;25099;51.946;4.838;2023-03-24T22:32:24;11.20;99.90
39371;DHT22;25099;51.946;4.838;2023-03-24T22:35:12;11.00;99.90
39371;DHT22;25099;51.946;4.838;2023-03-24T22:37:52;11.60;99.90
39371;DHT22;25099;51.946;4.838;2023-03-24T22:40:27;11.70;99.90
39371;DHT22;25099;51.946;4.838;2023-03-24T22:43:18;11.40;99.90
39371;DHT22;25099;51.946;4.838;2023-03-24T22:45:44;10.90;99.90
39371;DHT22;25099;51.946;4.838;2023-03-24T22:48:37;11.10;99.90
39371;DHT22;25099;51.946;4.838;2023-03-24T22:51:03;11.50;99.90
39371;DHT22;25099;51.946;4.838;2023-03-24T22:53:41;10.90;99.90
39371;DHT22;25099;51.946;4.838;2023-03-24T22:56:32;11.00;99.90
39371;DHT22;25099;51.946;4.838;2023-03-24T22:59:36;10.50;99.90
39371;DHT22;25099;51.946;4.838;2023-03-24T23:02:02;10.90;99.90
39371;DHT22;25099;51.946;4.838;2023-03-24T23:04:29;10.30;99.90
39371;DHT22;25099;51.946;4.838;2023-03-24T23:06:57;10.30;99.90
39371;DHT22;25099;51.946;4.838;2023-03-24T23:09:25;10.80;99.90